createdAt,value
2022-12-03T00:03:08.445Z,4.72
2022-12-03T00:08:55.298Z,5.13
2022-12-03T00:14:44.896Z,4.97
2022-12-03T00:20:31.913Z,4.75
2022-12-03T00:26:20.098Z,4.40
2022-12-03T00:32:09.087Z,3.35
2022-12-03T00:37:56.190Z,4.32
2022-12-03T00:43:43.202Z,4.57
2022-12-03T00:49:32.005Z,3.25
2022-12-03T00:55:18.977Z,4.15
2022-12-03T01:01:09.002Z,3.97
2022-12-03T01:06:55.954Z,3.63
2022-12-03T01:12:42.807Z,3.67
2022-12-03T01:18:29.814Z,4.15
2022-12-03T01:24:17.234Z,4.75
2022-12-03T01:30:05.290Z,4.82
2022-12-03T01:35:52.084Z,5.05
2022-12-03T01:41:39.482Z,5.85
2022-12-03T01:47:32.526Z,6.18
2022-12-03T01:53:23.007Z,5.22
2022-12-03T01:59:14.874Z,5.53
2022-12-03T02:05:06.055Z,4.68
2022-12-03T02:10:52.975Z,4.60
2022-12-03T02:16:42.309Z,6.45
2022-12-03T02:23:12.103Z,5.50
2022-12-03T02:28:58.836Z,6.10
2022-12-03T02:34:46.496Z,5.60
2022-12-03T02:40:33.989Z,6.18
2022-12-03T02:46:20.896Z,5.78
2022-12-03T02:52:07.950Z,5.72
2022-12-03T02:57:55.100Z,6.18
2022-12-03T03:03:42.087Z,4.10
2022-12-03T03:09:29.137Z,4.60
2022-12-03T03:15:16.329Z,4.82
2022-12-03T03:21:04.676Z,4.82
2022-12-03T03:26:51.675Z,3.65
2022-12-03T03:32:40.616Z,3.22
2022-12-03T03:38:29.329Z,4.03
2022-12-03T03:44:16.156Z,4.05
2022-12-03T03:50:03.710Z,4.07
2022-12-03T03:55:51.294Z,4.00
2022-12-03T04:01:38.535Z,3.55
2022-12-03T04:07:29.921Z,4.03
2022-12-03T04:13:16.678Z,4.10
2022-12-03T04:19:03.435Z,4.18
2022-12-03T04:24:50.286Z,3.75
2022-12-03T04:30:37.464Z,4.50
2022-12-03T04:36:24.198Z,4.50
2022-12-03T04:42:11.131Z,3.03
2022-12-03T04:47:58.453Z,4.68
2022-12-03T04:53:47.209Z,4.85
2022-12-03T04:59:37.428Z,4.45
2022-12-03T05:05:24.936Z,4.65
2022-12-03T05:11:14.140Z,5.88
2022-12-03T05:17:08.535Z,5.85
2022-12-03T05:23:16.442Z,6.07
2022-12-03T05:29:04.225Z,5.15
2022-12-03T05:34:51.503Z,4.35
2022-12-03T05:40:38.761Z,5.07
2022-12-03T05:46:25.755Z,5.82
2022-12-03T05:52:13.142Z,6.50
2022-12-03T05:57:59.804Z,5.85
2022-12-03T06:03:46.729Z,6.22
2022-12-03T06:09:33.688Z,5.40
2022-12-03T06:15:20.979Z,5.30
2022-12-03T06:21:07.673Z,5.53
2022-12-03T06:26:54.406Z,5.15
2022-12-03T06:32:41.368Z,6.22
2022-12-03T06:38:28.064Z,5.82
2022-12-03T06:44:15.212Z,4.47
2022-12-03T06:50:01.978Z,4.00
2022-12-03T06:55:48.747Z,5.40
2022-12-03T07:01:35.567Z,4.72
2022-12-03T07:07:22.330Z,5.38
2022-12-03T07:13:09.318Z,4.15
2022-12-03T07:18:56.158Z,5.90
2022-12-03T07:24:43.097Z,5.43
2022-12-03T07:30:30.282Z,5.15
2022-12-03T07:36:17.006Z,4.72
2022-12-03T07:42:03.884Z,4.70
2022-12-03T07:47:51.006Z,4.70
2022-12-03T07:53:37.859Z,3.45
2022-12-03T07:59:24.797Z,3.70
2022-12-03T08:05:12.158Z,3.58
2022-12-03T08:11:00.489Z,4.63
2022-12-03T08:16:53.701Z,4.80
2022-12-03T08:22:42.080Z,4.00
2022-12-03T08:28:29.012Z,5.05
2022-12-03T08:34:17.882Z,3.40
2022-12-03T08:40:22.591Z,3.83
2022-12-03T08:46:20.429Z,4.38
2022-12-03T08:52:15.906Z,4.22
2022-12-03T08:58:24.396Z,3.35
2022-12-03T09:04:17.435Z,3.53
2022-12-03T09:10:04.568Z,3.47
2022-12-03T09:15:51.387Z,3.65
2022-12-03T09:21:38.140Z,3.92
2022-12-03T09:27:24.902Z,3.22
2022-12-03T09:33:11.912Z,2.70
2022-12-03T09:38:58.795Z,2.58
2022-12-03T09:44:45.669Z,2.58
2022-12-03T09:50:32.855Z,2.97
2022-12-03T09:56:23.150Z,2.88
2022-12-03T10:02:30.775Z,7.65
2022-12-03T10:08:21.755Z,2.83
2022-12-03T10:14:13.968Z,3.13
2022-12-03T10:25:57.388Z,3.10
2022-12-03T10:31:45.003Z,2.72
2022-12-03T10:37:31.956Z,2.78
2022-12-03T10:43:19.351Z,2.67
2022-12-03T10:49:19.611Z,2.22
2022-12-03T10:55:06.839Z,2.50
2022-12-03T11:00:55.892Z,2.47
2022-12-03T11:06:42.657Z,2.78
2022-12-03T11:12:34.744Z,2.13
2022-12-03T11:18:36.843Z,3.25
2022-12-03T11:24:23.556Z,2.63
2022-12-03T11:30:10.636Z,2.85
2022-12-03T11:36:03.585Z,2.75
2022-12-03T11:42:25.710Z,3.08
2022-12-03T11:48:15.298Z,2.53
2022-12-03T11:54:05.530Z,2.08
2022-12-03T12:00:00.484Z,2.80
2022-12-03T12:05:47.181Z,2.67
2022-12-03T12:11:41.462Z,3.05
2022-12-03T12:17:35.975Z,3.20
2022-12-03T12:23:28.787Z,3.47
2022-12-03T12:29:15.465Z,3.08
2022-12-03T12:35:18.679Z,3.03
2022-12-03T12:41:08.059Z,3.13
2022-12-03T12:46:55.524Z,2.80
2022-12-03T12:52:53.145Z,3.30
2022-12-03T12:58:40.552Z,4.00
2022-12-03T13:04:30.617Z,3.67
2022-12-03T13:10:39.013Z,4.30
2022-12-03T13:16:30.725Z,4.60
2022-12-03T13:22:22.619Z,4.43
2022-12-03T13:28:09.379Z,3.83
2022-12-03T13:33:58.153Z,4.72
2022-12-03T13:39:50.120Z,4.25
2022-12-03T13:45:41.447Z,4.88
2022-12-03T13:51:32.338Z,5.90
2022-12-03T13:57:19.847Z,6.05
2022-12-03T14:03:06.723Z,5.28
2022-12-03T14:08:53.599Z,6.50
2022-12-03T14:14:40.543Z,6.60
2022-12-03T14:20:27.241Z,6.93
2022-12-03T14:26:13.945Z,6.30
2022-12-03T14:32:00.878Z,6.53
2022-12-03T14:38:02.867Z,6.63
2022-12-03T14:43:49.547Z,6.35
2022-12-03T14:49:36.932Z,5.22
2022-12-03T14:55:24.055Z,5.20
2022-12-03T15:01:10.932Z,4.68
2022-12-03T15:06:57.733Z,5.82
2022-12-03T15:12:44.709Z,5.72
2022-12-03T15:18:31.436Z,6.47
2022-12-03T15:24:18.179Z,6.60
2022-12-03T15:30:06.725Z,6.20
2022-12-03T15:35:53.492Z,5.93
2022-12-03T15:41:40.417Z,5.05
2022-12-03T15:47:27.199Z,6.25
2022-12-03T15:53:13.980Z,5.32
2022-12-03T15:59:01.066Z,6.15
2022-12-03T16:04:48.330Z,6.22
2022-12-03T16:10:35.249Z,6.32
2022-12-03T16:16:22.337Z,7.80
2022-12-03T16:22:09.527Z,8.20
2022-12-03T16:27:56.671Z,8.23
2022-12-03T16:33:43.404Z,6.60
2022-12-03T16:39:30.214Z,4.93
2022-12-03T16:45:29.016Z,6.70
2022-12-03T16:51:16.527Z,7.40
2022-12-03T16:57:11.001Z,6.82
2022-12-03T17:02:57.866Z,5.63
2022-12-03T17:08:49.384Z,6.80
2022-12-03T17:14:36.920Z,6.30
2022-12-03T17:20:23.732Z,7.30
2022-12-03T17:26:10.684Z,6.20
2022-12-03T17:31:57.907Z,7.03
2022-12-03T17:37:44.899Z,7.78
2022-12-03T17:43:32.118Z,6.63
2022-12-03T17:49:19.104Z,13.35
2022-12-03T17:55:12.141Z,7.40
2022-12-03T18:01:03.121Z,7.70
2022-12-03T18:06:50.602Z,7.63
2022-12-03T18:12:37.590Z,6.85
2022-12-03T18:18:24.505Z,7.40
2022-12-03T18:24:11.297Z,8.32
2022-12-03T18:29:58.210Z,8.27
2022-12-03T18:35:45.269Z,9.00
2022-12-03T18:41:33.484Z,7.90
2022-12-03T18:47:31.983Z,8.13
2022-12-03T18:53:19.739Z,8.05
2022-12-03T18:59:07.709Z,6.88
2022-12-03T19:04:54.847Z,8.52
2022-12-03T19:10:45.511Z,9.18
2022-12-03T19:16:32.708Z,7.72
2022-12-03T19:22:19.629Z,8.25
2022-12-03T19:28:07.240Z,8.27
2022-12-03T19:33:54.486Z,8.40
2022-12-03T19:39:42.256Z,7.43
2022-12-03T19:45:29.018Z,6.97
2022-12-03T19:51:33.555Z,7.15
2022-12-03T19:57:23.480Z,9.23
2022-12-03T20:03:10.779Z,7.80
2022-12-03T20:08:59.362Z,7.43
2022-12-03T20:14:46.686Z,7.10
2022-12-03T20:20:35.407Z,7.05
2022-12-03T20:26:23.051Z,6.68
2022-12-03T20:32:13.280Z,7.78
2022-12-03T20:38:00.169Z,7.25
2022-12-03T20:43:47.577Z,8.30
2022-12-03T20:49:34.384Z,8.07
2022-12-03T20:55:21.231Z,8.48
2022-12-03T21:01:15.626Z,8.52
2022-12-03T21:07:03.240Z,7.20
2022-12-03T21:12:50.215Z,7.72
2022-12-03T21:18:37.239Z,7.97
2022-12-03T21:24:24.046Z,8.68
2022-12-03T21:30:11.104Z,7.28
2022-12-03T21:36:00.373Z,6.95
2022-12-03T21:42:18.802Z,7.13
2022-12-03T21:47:56.494Z,6.75
2022-12-03T21:53:43.813Z,8.05
2022-12-03T21:59:30.816Z,7.68
2022-12-03T22:05:18.397Z,7.40
2022-12-03T22:11:07.706Z,8.23
2022-12-03T22:16:54.567Z,7.25
2022-12-03T22:22:41.336Z,8.43
2022-12-03T22:28:28.243Z,8.20
2022-12-03T22:34:15.152Z,7.32
2022-12-03T22:40:02.108Z,8.27
2022-12-03T22:45:53.685Z,8.15
2022-12-03T22:51:40.870Z,8.77
2022-12-03T22:57:27.697Z,7.18
2022-12-03T23:03:19.614Z,7.05
2022-12-03T23:09:07.391Z,7.57
2022-12-03T23:14:55.288Z,7.32
2022-12-03T23:20:51.693Z,8.63
2022-12-03T23:26:39.499Z,7.10
2022-12-03T23:32:26.452Z,6.70
2022-12-03T23:38:13.365Z,6.40
2022-12-03T23:44:00.730Z,7.53
2022-12-03T23:49:47.484Z,7.00
2022-12-03T23:55:34.269Z,6.60
